DLH582 EDDF-HECA
Flight info
| Callsign | DLH582 |
|---|---|
| Flight time | N/A |
| Altitude | 37000 |
| Route | CINDY2D CINDY Z74 LAMPU DCT NOMBO Y161 MAH DCT VAVOR DCT RADIZ DCT NEMEK DCT ELTIB DCT PINDO DCT LUSES DCT ATV DCT KUMBI L612 BLT |
| Aircraft | A346/H-SDE2E3FGHIJ3J4J5M1RWXY/LB1D1 |
Departure
| Time | 2026-04-17 04:02 |
|---|---|
| Airport | Frankfurt Main Airport (EDDF) |
Arrival
| Time | N/A |
|---|---|
| Airport | Cairo International Airport (HECA) |
| Time | Latitude | Longitude | Altitude | Speed | Heading |
|---|---|---|---|---|---|
| 2026-04-17 03:40 | 50.04175 | 8.56097 | 361 ft | 0 kts | 159° |
| 2026-04-17 03:56 | 50.04175 | 8.56098 | 361 ft | 0 kts | 159° |
| 2026-04-17 03:56 | 50.04163 | 8.56105 | 363 ft | 3 kts | 160° |
| 2026-04-17 03:56 | 50.04128 | 8.56116 | 361 ft | 7 kts | 180° |
| 2026-04-17 03:56 | 50.04081 | 8.56067 | 367 ft | 11 kts | 233° |
| 2026-04-17 03:57 | 50.04046 | 8.55948 | 363 ft | 14 kts | 247° |
| 2026-04-17 03:57 | 50.04007 | 8.55800 | 364 ft | 16 kts | 249° |
| 2026-04-17 03:57 | 50.03967 | 8.55617 | 364 ft | 19 kts | 252° |
| 2026-04-17 03:57 | 50.03920 | 8.55408 | 361 ft | 21 kts | 250° |
| 2026-04-17 03:58 | 50.03865 | 8.55178 | 364 ft | 24 kts | 249° |
| 2026-04-17 03:58 | 50.03806 | 8.54937 | 365 ft | 22 kts | 249° |
| 2026-04-17 03:58 | 50.03750 | 8.54707 | 361 ft | 24 kts | 249° |
| 2026-04-17 03:58 | 50.03689 | 8.54457 | 359 ft | 25 kts | 249° |
| 2026-04-17 03:59 | 50.03626 | 8.54193 | 355 ft | 27 kts | 249° |
| 2026-04-17 03:59 | 50.03561 | 8.53920 | 356 ft | 27 kts | 250° |
| 2026-04-17 03:59 | 50.03507 | 8.53690 | 356 ft | 19 kts | 250° |
| 2026-04-17 03:59 | 50.03465 | 8.53515 | 354 ft | 18 kts | 250° |
| 2026-04-17 04:00 | 50.03439 | 8.53406 | 356 ft | 5 kts | 250° |
| 2026-04-17 04:00 | 50.03422 | 8.53344 | 352 ft | 7 kts | 234° |
| 2026-04-17 04:00 | 50.03369 | 8.53343 | 354 ft | 11 kts | 149° |
| 2026-04-17 04:00 | 50.03312 | 8.53432 | 355 ft | 10 kts | 129° |
| 2026-04-17 04:01 | 50.03285 | 8.53492 | 355 ft | 6 kts | 110° |
| 2026-04-17 04:01 | 50.03290 | 8.53570 | 356 ft | 9 kts | 71° |
| 2026-04-17 04:01 | 50.03298 | 8.53603 | 353 ft | 16 kts | 70° |
| 2026-04-17 04:01 | 50.03416 | 8.54095 | 357 ft | 79 kts | 69° |
| 2026-04-17 04:02 | 50.03671 | 8.55157 | 359 ft | 132 kts | 70° |
| 2026-04-17 04:02 | 50.04045 | 8.56728 | 370 ft | 175 kts | 69° |
| 2026-04-17 04:02 | 50.04500 | 8.58604 | 725 ft | 187 kts | 69° |
| 2026-04-17 04:02 | 50.04944 | 8.60465 | 1443 ft | 182 kts | 70° |
| 2026-04-17 04:03 | 50.05362 | 8.62328 | 2067 ft | 183 kts | 73° |
| 2026-04-17 04:03 | 50.05747 | 8.64261 | 2475 ft | 194 kts | 74° |
| 2026-04-17 04:03 | 50.06158 | 8.66353 | 2789 ft | 209 kts | 73° |
| 2026-04-17 04:03 | 50.06611 | 8.68603 | 3124 ft | 225 kts | 73° |
| 2026-04-17 04:04 | 50.07092 | 8.70989 | 3578 ft | 235 kts | 77° |
| 2026-04-17 04:04 | 50.07094 | 8.73507 | 4188 ft | 237 kts | 110° |
| 2026-04-17 04:04 | 50.06208 | 8.75729 | 4612 ft | 251 kts | 137° |
| 2026-04-17 04:04 | 50.04863 | 8.77588 | 5068 ft | 265 kts | 140° |
| 2026-04-17 04:05 | 50.03456 | 8.79501 | 5769 ft | 270 kts | 140° |
| 2026-04-17 04:05 | 50.02038 | 8.81439 | 6581 ft | 273 kts | 140° |
| 2026-04-17 04:05 | 50.00604 | 8.83402 | 7348 ft | 276 kts | 140° |
| 2026-04-17 04:05 | 49.99149 | 8.85392 | 8097 ft | 280 kts | 140° |
| 2026-04-17 04:06 | 49.97673 | 8.87413 | 8884 ft | 285 kts | 140° |
| 2026-04-17 04:06 | 49.96192 | 8.89443 | 9678 ft | 289 kts | 140° |
| 2026-04-17 04:06 | 49.94672 | 8.91527 | 10418 ft | 294 kts | 140° |
| 2026-04-17 04:06 | 49.93111 | 8.93666 | 10980 ft | 305 kts | 140° |
| 2026-04-17 04:07 | 49.91468 | 8.95914 | 11346 ft | 323 kts | 140° |
| 2026-04-17 04:07 | 49.89737 | 8.98282 | 11691 ft | 341 kts | 140° |
| 2026-04-17 04:07 | 49.87910 | 9.00778 | 12019 ft | 359 kts | 140° |
| 2026-04-17 04:07 | 49.85993 | 9.03397 | 12338 ft | 376 kts | 140° |
| 2026-04-17 04:08 | 49.83978 | 9.06146 | 12686 ft | 392 kts | 140° |
| 2026-04-17 04:08 | 49.81908 | 9.08966 | 13315 ft | 399 kts | 139° |
| 2026-04-17 04:08 | 49.79811 | 9.11825 | 14065 ft | 404 kts | 139° |
| 2026-04-17 04:08 | 49.77686 | 9.14719 | 14683 ft | 409 kts | 139° |
| 2026-04-17 04:09 | 49.75560 | 9.17690 | 15304 ft | 414 kts | 137° |
| 2026-04-17 04:09 | 49.73516 | 9.20871 | 15951 ft | 419 kts | 133° |
| 2026-04-17 04:09 | 49.71589 | 9.24217 | 16600 ft | 423 kts | 131° |
| 2026-04-17 04:09 | 49.69640 | 9.27671 | 17237 ft | 428 kts | 131° |
| 2026-04-17 04:10 | 49.67672 | 9.31158 | 17845 ft | 433 kts | 131° |
| 2026-04-17 04:10 | 49.65679 | 9.34681 | 18467 ft | 437 kts | 131° |
| 2026-04-17 04:10 | 49.63632 | 9.38188 | 19005 ft | 442 kts | 135° |
| 2026-04-17 04:10 | 49.61353 | 9.41408 | 19531 ft | 446 kts | 141° |
| 2026-04-17 04:11 | 49.58835 | 9.44235 | 20084 ft | 449 kts | 148° |
| 2026-04-17 04:11 | 49.57064 | 9.45916 | 20448 ft | 451 kts | 150° |
| 2026-04-17 04:11 | 49.54347 | 9.48390 | 20990 ft | 455 kts | 150° |
| 2026-04-17 04:11 | 49.51596 | 9.50865 | 21520 ft | 459 kts | 150° |
| 2026-04-17 04:12 | 49.48821 | 9.53367 | 22051 ft | 464 kts | 150° |
| 2026-04-17 04:12 | 49.45120 | 9.56720 | 22732 ft | 469 kts | 150° |
| 2026-04-17 04:12 | 49.43217 | 9.58449 | 23086 ft | 472 kts | 150° |
| 2026-04-17 04:12 | 49.40377 | 9.61030 | 23596 ft | 476 kts | 150° |
| 2026-04-17 04:13 | 49.37519 | 9.63649 | 24044 ft | 480 kts | 149° |
| 2026-04-17 04:13 | 49.34742 | 9.66549 | 24475 ft | 484 kts | 144° |
| 2026-04-17 04:13 | 49.32142 | 9.69770 | 24895 ft | 487 kts | 139° |
| 2026-04-17 04:13 | 49.29671 | 9.73356 | 25347 ft | 490 kts | 135° |
| 2026-04-17 04:14 | 49.27247 | 9.77063 | 25777 ft | 493 kts | 135° |
| 2026-04-17 04:14 | 49.24815 | 9.80808 | 26204 ft | 497 kts | 135° |
| 2026-04-17 04:14 | 49.22365 | 9.84568 | 26580 ft | 501 kts | 135° |
| 2026-04-17 04:14 | 49.19888 | 9.88354 | 26993 ft | 504 kts | 135° |
| 2026-04-17 04:15 | 49.17390 | 9.92155 | 27391 ft | 507 kts | 135° |
| 2026-04-17 04:15 | 49.14873 | 9.95972 | 27802 ft | 511 kts | 135° |
| 2026-04-17 04:15 | 49.12336 | 9.99810 | 28190 ft | 514 kts | 135° |
| 2026-04-17 04:15 | 49.09784 | 10.03663 | 28592 ft | 517 kts | 135° |
| 2026-04-17 04:16 | 49.07227 | 10.07517 | 29118 ft | 516 kts | 136° |
| 2026-04-17 04:16 | 49.04651 | 10.11333 | 29756 ft | 514 kts | 137° |
| 2026-04-17 04:16 | 49.02037 | 10.15044 | 30355 ft | 513 kts | 138° |
| 2026-04-17 04:16 | 48.99443 | 10.18669 | 30827 ft | 512 kts | 138° |
| 2026-04-17 04:17 | 48.96816 | 10.22340 | 31245 ft | 513 kts | 138° |
| 2026-04-17 04:17 | 48.94186 | 10.26035 | 31697 ft | 513 kts | 137° |
| 2026-04-17 04:17 | 48.91570 | 10.29727 | 32170 ft | 512 kts | 137° |
| 2026-04-17 04:17 | 48.88957 | 10.33416 | 32659 ft | 511 kts | 137° |
| 2026-04-17 04:18 | 48.86353 | 10.37085 | 33153 ft | 509 kts | 137° |
| 2026-04-17 04:18 | 48.83761 | 10.40747 | 33630 ft | 508 kts | 137° |
| 2026-04-17 04:18 | 48.81264 | 10.44558 | 34103 ft | 507 kts | 134° |
| 2026-04-17 04:18 | 48.78839 | 10.48445 | 34518 ft | 506 kts | 134° |
| 2026-04-17 04:19 | 48.76420 | 10.52327 | 34905 ft | 505 kts | 133° |
| 2026-04-17 04:19 | 48.74007 | 10.56187 | 35214 ft | 505 kts | 134° |
| 2026-04-17 04:19 | 48.71589 | 10.60051 | 35242 ft | 504 kts | 134° |
| 2026-04-17 04:20 | 48.66779 | 10.67709 | 35248 ft | 504 kts | 134° |
| 2026-04-17 04:20 | 48.61944 | 10.75385 | 35248 ft | 504 kts | 134° |
| 2026-04-17 04:21 | 48.57109 | 10.83058 | 35235 ft | 504 kts | 133° |
| 2026-04-17 04:21 | 48.52300 | 10.90759 | 35244 ft | 504 kts | 133° |
| 2026-04-17 04:22 | 48.47463 | 10.98454 | 35240 ft | 505 kts | 134° |
| 2026-04-17 04:22 | 48.42577 | 11.06071 | 35237 ft | 505 kts | 134° |
| 2026-04-17 04:23 | 48.37679 | 11.13670 | 35236 ft | 505 kts | 134° |
| 2026-04-17 04:23 | 48.32788 | 11.21247 | 35235 ft | 505 kts | 134° |
| 2026-04-17 04:24 | 48.28039 | 11.29041 | 35236 ft | 505 kts | 129° |
| 2026-04-17 04:24 | 48.23904 | 11.37569 | 35237 ft | 504 kts | 121° |
| 2026-04-17 04:25 | 48.20347 | 11.46634 | 35239 ft | 504 kts | 118° |
| 2026-04-17 04:25 | 48.16847 | 11.55745 | 35238 ft | 504 kts | 119° |
| 2026-04-17 04:26 | 48.13346 | 11.64775 | 35249 ft | 504 kts | 119° |
| 2026-04-17 04:26 | 48.09804 | 11.73864 | 35247 ft | 504 kts | 119° |
| 2026-04-17 04:27 | 48.06258 | 11.82924 | 35244 ft | 504 kts | 119° |
| 2026-04-17 04:27 | 48.02702 | 11.91978 | 35235 ft | 504 kts | 119° |
| 2026-04-17 04:28 | 47.99141 | 12.01008 | 35252 ft | 504 kts | 119° |
| 2026-04-17 04:28 | 47.95341 | 12.09830 | 35249 ft | 506 kts | 125° |
| 2026-04-17 04:29 | 47.90863 | 12.17929 | 35254 ft | 506 kts | 133° |
| 2026-04-17 04:29 | 47.85745 | 12.25154 | 35256 ft | 506 kts | 140° |
| 2026-04-17 04:30 | 47.80327 | 12.31874 | 35259 ft | 506 kts | 141° |
| 2026-04-17 04:30 | 47.74949 | 12.38557 | 35249 ft | 506 kts | 140° |
| 2026-04-17 04:31 | 47.69550 | 12.45279 | 35259 ft | 506 kts | 140° |
| 2026-04-17 04:31 | 47.64146 | 12.51996 | 35259 ft | 506 kts | 140° |
| 2026-04-17 04:32 | 47.58964 | 12.59058 | 35265 ft | 506 kts | 136° |
| 2026-04-17 04:32 | 47.53883 | 12.66268 | 35273 ft | 506 kts | 136° |
| 2026-04-17 04:33 | 47.48788 | 12.73469 | 35254 ft | 505 kts | 136° |
| 2026-04-17 04:33 | 47.43726 | 12.80600 | 35261 ft | 505 kts | 136° |
| 2026-04-17 04:34 | 47.36077 | 12.91332 | 35255 ft | 505 kts | 136° |
| 2026-04-17 04:34 | 47.30960 | 12.98484 | 35264 ft | 506 kts | 136° |
| 2026-04-17 04:35 | 47.25847 | 13.05611 | 35244 ft | 506 kts | 136° |
| 2026-04-17 04:35 | 47.20721 | 13.12734 | 35245 ft | 506 kts | 136° |
| 2026-04-17 04:36 | 47.15596 | 13.19840 | 35254 ft | 506 kts | 136° |
| 2026-04-17 04:36 | 47.10464 | 13.26933 | 35246 ft | 506 kts | 136° |
| 2026-04-17 04:37 | 47.05354 | 13.33975 | 35255 ft | 507 kts | 136° |
| 2026-04-17 04:37 | 47.00176 | 13.41094 | 35237 ft | 506 kts | 136° |
| 2026-04-17 04:38 | 46.95075 | 13.48087 | 35245 ft | 505 kts | 136° |
| 2026-04-17 04:38 | 46.89930 | 13.55121 | 35237 ft | 505 kts | 136° |
| 2026-04-17 04:39 | 46.84787 | 13.62131 | 35247 ft | 505 kts | 136° |
| 2026-04-17 04:39 | 46.79637 | 13.69132 | 35245 ft | 505 kts | 136° |
| 2026-04-17 04:40 | 46.74484 | 13.76118 | 35226 ft | 504 kts | 136° |
| 2026-04-17 04:40 | 46.69374 | 13.83026 | 35225 ft | 503 kts | 136° |
| 2026-04-17 04:41 | 46.64229 | 13.89965 | 35243 ft | 503 kts | 136° |
| 2026-04-17 04:41 | 46.59079 | 13.96889 | 35228 ft | 504 kts | 136° |
| 2026-04-17 04:42 | 46.53927 | 14.03800 | 35229 ft | 504 kts | 136° |
| 2026-04-17 04:42 | 46.48761 | 14.10709 | 35237 ft | 504 kts | 136° |
| 2026-04-17 04:43 | 46.43598 | 14.17596 | 35237 ft | 503 kts | 137° |
| 2026-04-17 04:43 | 46.38456 | 14.24432 | 35216 ft | 504 kts | 136° |
| 2026-04-17 04:44 | 46.33273 | 14.31312 | 35210 ft | 505 kts | 136° |
| 2026-04-17 04:44 | 46.28084 | 14.38180 | 35210 ft | 505 kts | 136° |
| 2026-04-17 04:45 | 46.22891 | 14.45031 | 35208 ft | 505 kts | 136° |
| 2026-04-17 04:45 | 46.17698 | 14.51863 | 35216 ft | 504 kts | 136° |
| 2026-04-17 04:46 | 46.12511 | 14.58671 | 35212 ft | 503 kts | 136° |
| 2026-04-17 04:46 | 46.07318 | 14.65472 | 35211 ft | 503 kts | 136° |
| 2026-04-17 04:47 | 46.02126 | 14.72252 | 35212 ft | 503 kts | 136° |
| 2026-04-17 04:47 | 45.96940 | 14.79004 | 35216 ft | 502 kts | 136° |
| 2026-04-17 04:48 | 45.91756 | 14.85735 | 35211 ft | 502 kts | 136° |
| 2026-04-17 04:48 | 45.86600 | 14.92414 | 35209 ft | 502 kts | 136° |
| 2026-04-17 04:49 | 45.81408 | 14.99123 | 35205 ft | 502 kts | 136° |
| 2026-04-17 04:49 | 45.76217 | 15.05811 | 35208 ft | 502 kts | 136° |
| 2026-04-17 04:50 | 45.71010 | 15.12498 | 35213 ft | 502 kts | 136° |
| 2026-04-17 04:50 | 45.65804 | 15.19171 | 35213 ft | 502 kts | 136° |
| 2026-04-17 04:51 | 45.60597 | 15.25825 | 35209 ft | 502 kts | 136° |
| 2026-04-17 04:51 | 45.55367 | 15.32449 | 35211 ft | 502 kts | 137° |
| 2026-04-17 04:52 | 45.50101 | 15.38913 | 35204 ft | 501 kts | 138° |
| 2026-04-17 04:52 | 45.44807 | 15.45378 | 35207 ft | 500 kts | 137° |
| 2026-04-17 04:53 | 45.39516 | 15.51838 | 35205 ft | 500 kts | 138° |
| 2026-04-17 04:55 | 45.18347 | 15.77539 | 35206 ft | 499 kts | 137° |
| 2026-04-17 04:55 | 45.13090 | 15.83883 | 35206 ft | 499 kts | 137° |
| 2026-04-17 04:56 | 45.07796 | 15.90256 | 35207 ft | 499 kts | 138° |
| 2026-04-17 04:56 | 45.02489 | 15.96628 | 35198 ft | 498 kts | 138° |
| 2026-04-17 04:57 | 44.98102 | 16.01881 | 35202 ft | 497 kts | 138° |
| 2026-04-17 04:57 | 44.92822 | 16.08191 | 35246 ft | 500 kts | 138° |
| 2026-04-17 04:58 | 44.90150 | 16.11380 | 35560 ft | 500 kts | 138° |
| 2026-04-17 04:58 | 44.87495 | 16.14545 | 35979 ft | 498 kts | 138° |
| 2026-04-17 04:58 | 44.84850 | 16.17693 | 36338 ft | 498 kts | 138° |
| 2026-04-17 04:58 | 44.82200 | 16.20847 | 36634 ft | 498 kts | 139° |
| 2026-04-17 04:59 | 44.79580 | 16.23956 | 36898 ft | 499 kts | 139° |
| 2026-04-17 04:59 | 44.76921 | 16.27105 | 37157 ft | 500 kts | 139° |
| 2026-04-17 04:59 | 44.71587 | 16.33412 | 37188 ft | 500 kts | 139° |
| 2026-04-17 05:00 | 44.66248 | 16.39711 | 37174 ft | 501 kts | 139° |
| 2026-04-17 05:00 | 44.60902 | 16.46007 | 37182 ft | 501 kts | 139° |
| 2026-04-17 05:01 | 44.55549 | 16.52291 | 37170 ft | 501 kts | 139° |
| 2026-04-17 05:01 | 44.50203 | 16.58550 | 37174 ft | 500 kts | 139° |
| 2026-04-17 05:02 | 44.44859 | 16.64794 | 37170 ft | 500 kts | 139° |
| 2026-04-17 05:02 | 44.39517 | 16.71021 | 37181 ft | 500 kts | 139° |
| 2026-04-17 05:03 | 44.34209 | 16.77192 | 37169 ft | 499 kts | 139° |
| 2026-04-17 05:03 | 44.28873 | 16.83386 | 37166 ft | 497 kts | 139° |
| 2026-04-17 05:04 | 44.23580 | 16.89602 | 37163 ft | 497 kts | 139° |
| 2026-04-17 05:04 | 44.18289 | 16.95807 | 37170 ft | 496 kts | 139° |
| 2026-04-17 05:05 | 44.12992 | 17.02001 | 37169 ft | 496 kts | 140° |
| 2026-04-17 05:05 | 44.07727 | 17.08131 | 37154 ft | 496 kts | 140° |
| 2026-04-17 05:06 | 44.02420 | 17.14293 | 37158 ft | 495 kts | 140° |
| 2026-04-17 05:06 | 43.97131 | 17.20421 | 37157 ft | 495 kts | 140° |
| 2026-04-17 05:07 | 43.91839 | 17.26547 | 37154 ft | 493 kts | 140° |
| 2026-04-17 05:07 | 43.86596 | 17.32590 | 37145 ft | 493 kts | 140° |
| 2026-04-17 05:08 | 43.81316 | 17.38660 | 37131 ft | 494 kts | 140° |
| 2026-04-17 05:08 | 43.76020 | 17.44740 | 37127 ft | 493 kts | 140° |
| 2026-04-17 05:09 | 43.70743 | 17.50787 | 37119 ft | 492 kts | 141° |
| 2026-04-17 05:09 | 43.65466 | 17.56813 | 37122 ft | 492 kts | 141° |
| 2026-04-17 05:10 | 43.60180 | 17.62833 | 37107 ft | 490 kts | 140° |
| 2026-04-17 05:10 | 43.54927 | 17.68806 | 37123 ft | 488 kts | 140° |
| 2026-04-17 05:11 | 43.49675 | 17.74765 | 37112 ft | 488 kts | 140° |